sensor_id;sensor_type;location;lat;lon;timestamp;P1;durP1;ratioP1;P2;durP2;ratioP2
47403;SDS011;33157;51.508;4.288;2022-09-01T00:02:29;6.10;;;1.13;;
47403;SDS011;33157;51.508;4.288;2022-09-01T00:07:30;3.33;;;1.20;;
47403;SDS011;33157;51.508;4.288;2022-09-01T00:12:30;5.50;;;1.13;;
47403;SDS011;33157;51.508;4.288;2022-09-01T00:17:31;2.33;;;0.82;;
47403;SDS011;33157;51.508;4.288;2022-09-01T00:22:33;2.65;;;1.13;;
47403;SDS011;33157;51.508;4.288;2022-09-01T00:27:33;2.03;;;1.00;;
47403;SDS011;33157;51.508;4.288;2022-09-01T00:32:34;4.20;;;1.17;;
47403;SDS011;33157;51.508;4.288;2022-09-01T00:37:34;2.10;;;1.15;;
47403;SDS011;33157;51.508;4.288;2022-09-01T00:42:35;3.95;;;1.85;;
47403;SDS011;33157;51.508;4.288;2022-09-01T00:47:36;2.90;;;1.10;;
47403;SDS011;33157;51.508;4.288;2022-09-01T00:52:42;4.38;;;1.63;;
47403;SDS011;33157;51.508;4.288;2022-09-01T00:57:45;3.03;;;1.25;;
47403;SDS011;33157;51.508;4.288;2022-09-01T01:02:46;5.32;;;1.13;;
47403;SDS011;33157;51.508;4.288;2022-09-01T01:07:47;2.20;;;1.08;;
47403;SDS011;33157;51.508;4.288;2022-09-01T01:12:48;2.53;;;1.00;;
47403;SDS011;33157;51.508;4.288;2022-09-01T01:17:53;2.53;;;1.23;;
47403;SDS011;33157;51.508;4.288;2022-09-01T01:33:16;3.53;;;1.30;;
47403;SDS011;33157;51.508;4.288;2022-09-01T01:38:18;6.20;;;1.33;;
47403;SDS011;33157;51.508;4.288;2022-09-01T01:43:22;2.30;;;1.15;;
47403;SDS011;33157;51.508;4.288;2022-09-01T01:48:23;2.45;;;1.10;;
47403;SDS011;33157;51.508;4.288;2022-09-01T01:53:23;2.47;;;1.25;;
47403;SDS011;33157;51.508;4.288;2022-09-01T01:58:24;3.53;;;1.75;;
47403;SDS011;33157;51.508;4.288;2022-09-01T02:03:26;1.98;;;1.10;;
47403;SDS011;33157;51.508;4.288;2022-09-01T02:13:28;3.27;;;1.13;;
47403;SDS011;33157;51.508;4.288;2022-09-01T02:18:33;2.05;;;1.10;;
47403;SDS011;33157;51.508;4.288;2022-09-01T02:23:39;2.25;;;1.20;;
47403;SDS011;33157;51.508;4.288;2022-09-01T02:28:40;2.10;;;1.00;;
47403;SDS011;33157;51.508;4.288;2022-09-01T02:33:42;3.70;;;1.60;;
47403;SDS011;33157;51.508;4.288;2022-09-01T02:38:44;3.22;;;1.48;;
47403;SDS011;33157;51.508;4.288;2022-09-01T02:43:45;5.88;;;1.50;;
47403;SDS011;33157;51.508;4.288;2022-09-01T02:48:46;3.85;;;1.30;;
47403;SDS011;33157;51.508;4.288;2022-09-01T02:53:48;5.47;;;1.55;;
47403;SDS011;33157;51.508;4.288;2022-09-01T02:58:51;5.78;;;1.88;;
47403;SDS011;33157;51.508;4.288;2022-09-01T03:03:53;4.55;;;1.40;;
47403;SDS011;33157;51.508;4.288;2022-09-01T03:08:56;8.45;;;1.85;;
47403;SDS011;33157;51.508;4.288;2022-09-01T03:14:00;3.58;;;1.10;;
47403;SDS011;33157;51.508;4.288;2022-09-01T03:19:00;3.83;;;1.70;;
47403;SDS011;33157;51.508;4.288;2022-09-01T03:24:07;2.17;;;1.35;;
47403;SDS011;33157;51.508;4.288;2022-09-01T03:29:09;2.53;;;1.42;;
47403;SDS011;33157;51.508;4.288;2022-09-01T03:34:09;2.53;;;1.10;;
47403;SDS011;33157;51.508;4.288;2022-09-01T03:39:10;4.40;;;1.70;;
47403;SDS011;33157;51.508;4.288;2022-09-01T03:44:13;3.45;;;1.27;;
47403;SDS011;33157;51.508;4.288;2022-09-01T03:49:15;5.45;;;1.30;;
47403;SDS011;33157;51.508;4.288;2022-09-01T03:54:23;2.83;;;1.30;;
47403;SDS011;33157;51.508;4.288;2022-09-01T03:59:29;4.45;;;1.55;;
47403;SDS011;33157;51.508;4.288;2022-09-01T04:04:29;3.72;;;1.75;;
47403;SDS011;33157;51.508;4.288;2022-09-01T04:09:32;3.05;;;1.80;;
47403;SDS011;33157;51.508;4.288;2022-09-01T04:14:34;7.82;;;2.25;;
47403;SDS011;33157;51.508;4.288;2022-09-01T04:19:35;3.63;;;1.67;;
47403;SDS011;33157;51.508;4.288;2022-09-01T04:24:38;4.97;;;1.95;;
47403;SDS011;33157;51.508;4.288;2022-09-01T04:29:44;4.72;;;1.88;;
47403;SDS011;33157;51.508;4.288;2022-09-01T04:34:45;5.32;;;1.50;;
47403;SDS011;33157;51.508;4.288;2022-09-01T04:39:50;4.80;;;2.03;;
47403;SDS011;33157;51.508;4.288;2022-09-01T04:44:51;4.18;;;2.10;;
47403;SDS011;33157;51.508;4.288;2022-09-01T04:49:59;6.07;;;2.00;;
47403;SDS011;33157;51.508;4.288;2022-09-01T04:55:01;2.55;;;1.90;;
47403;SDS011;33157;51.508;4.288;2022-09-01T05:00:02;5.13;;;1.88;;
47403;SDS011;33157;51.508;4.288;2022-09-01T05:05:03;4.28;;;1.77;;
47403;SDS011;33157;51.508;4.288;2022-09-01T05:10:05;8.00;;;5.03;;
47403;SDS011;33157;51.508;4.288;2022-09-01T05:15:06;5.78;;;3.30;;
47403;SDS011;33157;51.508;4.288;2022-09-01T05:20:09;6.72;;;2.30;;
47403;SDS011;33157;51.508;4.288;2022-09-01T05:25:10;3.97;;;2.35;;
47403;SDS011;33157;51.508;4.288;2022-09-01T05:30:12;4.00;;;2.35;;
47403;SDS011;33157;51.508;4.288;2022-09-01T05:35:15;3.90;;;2.20;;
47403;SDS011;33157;51.508;4.288;2022-09-01T05:40:16;5.80;;;2.65;;
47403;SDS011;33157;51.508;4.288;2022-09-01T05:45:17;5.93;;;2.00;;
47403;SDS011;33157;51.508;4.288;2022-09-01T05:50:22;5.32;;;2.40;;
47403;SDS011;33157;51.508;4.288;2022-09-01T05:55:22;4.70;;;2.60;;
47403;SDS011;33157;51.508;4.288;2022-09-01T06:00:26;6.35;;;2.35;;
47403;SDS011;33157;51.508;4.288;2022-09-01T06:05:34;4.45;;;2.30;;
47403;SDS011;33157;51.508;4.288;2022-09-01T06:10:36;5.32;;;3.38;;
47403;SDS011;33157;51.508;4.288;2022-09-01T06:15:39;6.63;;;2.60;;
47403;SDS011;33157;51.508;4.288;2022-09-01T06:20:40;7.20;;;2.55;;
47403;SDS011;33157;51.508;4.288;2022-09-01T06:25:45;5.20;;;2.63;;
47403;SDS011;33157;51.508;4.288;2022-09-01T06:30:46;8.00;;;2.50;;
47403;SDS011;33157;51.508;4.288;2022-09-01T06:35:48;6.53;;;2.15;;
47403;SDS011;33157;51.508;4.288;2022-09-01T06:40:48;5.50;;;2.53;;
47403;SDS011;33157;51.508;4.288;2022-09-01T06:45:48;4.30;;;2.45;;
47403;SDS011;33157;51.508;4.288;2022-09-01T06:50:53;7.10;;;2.88;;
47403;SDS011;33157;51.508;4.288;2022-09-01T06:55:53;8.85;;;2.80;;
47403;SDS011;33157;51.508;4.288;2022-09-01T07:00:55;6.30;;;2.95;;
47403;SDS011;33157;51.508;4.288;2022-09-01T07:05:55;7.03;;;2.58;;
47403;SDS011;33157;51.508;4.288;2022-09-01T07:10:56;5.50;;;2.42;;
47403;SDS011;33157;51.508;4.288;2022-09-01T07:15:58;9.82;;;3.97;;
47403;SDS011;33157;51.508;4.288;2022-09-01T07:20:58;8.98;;;3.17;;
47403;SDS011;33157;51.508;4.288;2022-09-01T07:26:04;5.50;;;2.65;;
47403;SDS011;33157;51.508;4.288;2022-09-01T07:31:06;8.60;;;3.10;;
47403;SDS011;33157;51.508;4.288;2022-09-01T07:36:07;8.30;;;2.60;;
47403;SDS011;33157;51.508;4.288;2022-09-01T07:41:09;15.40;;;3.45;;
47403;SDS011;33157;51.508;4.288;2022-09-01T07:46:12;7.20;;;2.50;;
47403;SDS011;33157;51.508;4.288;2022-09-01T07:51:12;4.43;;;2.33;;
47403;SDS011;33157;51.508;4.288;2022-09-01T07:56:19;6.80;;;2.08;;
47403;SDS011;33157;51.508;4.288;2022-09-01T08:01:21;4.78;;;1.80;;
47403;SDS011;33157;51.508;4.288;2022-09-01T08:06:24;5.60;;;2.33;;
47403;SDS011;33157;51.508;4.288;2022-09-01T08:11:27;8.77;;;2.10;;
47403;SDS011;33157;51.508;4.288;2022-09-01T08:16:29;4.68;;;1.70;;
47403;SDS011;33157;51.508;4.288;2022-09-01T08:21:30;11.73;;;2.22;;
47403;SDS011;33157;51.508;4.288;2022-09-01T08:26:33;6.90;;;2.03;;
47403;SDS011;33157;51.508;4.288;2022-09-01T08:31:34;5.28;;;2.20;;
47403;SDS011;33157;51.508;4.288;2022-09-01T08:36:35;5.65;;;1.77;;
47403;SDS011;33157;51.508;4.288;2022-09-01T08:41:42;6.65;;;1.77;;
47403;SDS011;33157;51.508;4.288;2022-09-01T08:46:44;3.75;;;2.03;;
47403;SDS011;33157;51.508;4.288;2022-09-01T08:56:50;5.45;;;1.90;;
47403;SDS011;33157;51.508;4.288;2022-09-01T09:12:50;5.45;;;1.80;;
47403;SDS011;33157;51.508;4.288;2022-09-01T09:18:26;5.43;;;1.73;;
47403;SDS011;33157;51.508;4.288;2022-09-01T09:23:47;6.10;;;1.70;;
47403;SDS011;33157;51.508;4.288;2022-09-01T09:28:50;9.40;;;1.95;;
47403;SDS011;33157;51.508;4.288;2022-09-01T09:33:50;3.90;;;1.50;;
47403;SDS011;33157;51.508;4.288;2022-09-01T10:04:31;6.27;;;2.07;;
47403;SDS011;33157;51.508;4.288;2022-09-01T10:19:53;6.03;;;1.92;;
47403;SDS011;33157;51.508;4.288;2022-09-01T10:24:57;6.05;;;1.73;;
47403;SDS011;33157;51.508;4.288;2022-09-01T10:30:20;5.05;;;1.30;;
47403;SDS011;33157;51.508;4.288;2022-09-01T10:35:28;6.03;;;1.10;;
47403;SDS011;33157;51.508;4.288;2022-09-01T10:50:33;2.40;;;1.30;;
47403;SDS011;33157;51.508;4.288;2022-09-01T10:55:38;5.83;;;1.50;;
47403;SDS011;33157;51.508;4.288;2022-09-01T11:15:54;10.73;;;1.77;;
47403;SDS011;33157;51.508;4.288;2022-09-01T11:21:15;5.95;;;1.35;;
47403;SDS011;33157;51.508;4.288;2022-09-01T11:31:38;4.07;;;1.52;;
47403;SDS011;33157;51.508;4.288;2022-09-01T11:41:53;6.22;;;1.40;;
47403;SDS011;33157;51.508;4.288;2022-09-01T11:46:57;7.25;;;1.35;;
47403;SDS011;33157;51.508;4.288;2022-09-01T11:52:01;4.97;;;1.20;;
47403;SDS011;33157;51.508;4.288;2022-09-01T12:07:31;3.90;;;1.15;;
47403;SDS011;33157;51.508;4.288;2022-09-01T12:12:39;4.82;;;1.40;;
47403;SDS011;33157;51.508;4.288;2022-09-01T12:17:40;7.17;;;1.17;;
47403;SDS011;33157;51.508;4.288;2022-09-01T12:22:41;5.67;;;1.20;;
47403;SDS011;33157;51.508;4.288;2022-09-01T12:27:41;4.72;;;1.20;;
47403;SDS011;33157;51.508;4.288;2022-09-01T12:32:42;8.63;;;1.20;;
47403;SDS011;33157;51.508;4.288;2022-09-01T12:37:43;2.00;;;0.93;;
47403;SDS011;33157;51.508;4.288;2022-09-01T12:42:48;3.35;;;1.20;;
47403;SDS011;33157;51.508;4.288;2022-09-01T12:47:50;3.45;;;1.23;;
47403;SDS011;33157;51.508;4.288;2022-09-01T12:52:54;2.47;;;1.00;;
47403;SDS011;33157;51.508;4.288;2022-09-01T12:57:58;4.00;;;1.23;;
47403;SDS011;33157;51.508;4.288;2022-09-01T13:08:17;3.67;;;1.00;;
47403;SDS011;33157;51.508;4.288;2022-09-01T13:13:20;3.80;;;1.05;;
47403;SDS011;33157;51.508;4.288;2022-09-01T13:18:23;4.03;;;1.13;;
47403;SDS011;33157;51.508;4.288;2022-09-01T13:28:25;4.30;;;1.27;;
47403;SDS011;33157;51.508;4.288;2022-09-01T13:33:26;2.95;;;1.25;;
47403;SDS011;33157;51.508;4.288;2022-09-01T13:38:27;4.03;;;1.20;;
47403;SDS011;33157;51.508;4.288;2022-09-01T13:43:27;3.10;;;1.10;;
47403;SDS011;33157;51.508;4.288;2022-09-01T13:48:28;9.13;;;0.90;;
47403;SDS011;33157;51.508;4.288;2022-09-01T13:53:29;3.60;;;1.23;;
47403;SDS011;33157;51.508;4.288;2022-09-01T13:58:29;3.30;;;0.90;;
47403;SDS011;33157;51.508;4.288;2022-09-01T14:03:29;2.83;;;0.90;;
47403;SDS011;33157;51.508;4.288;2022-09-01T14:08:31;2.97;;;0.80;;
47403;SDS011;33157;51.508;4.288;2022-09-01T14:13:33;4.75;;;1.20;;
47403;SDS011;33157;51.508;4.288;2022-09-01T14:18:34;6.95;;;1.30;;
47403;SDS011;33157;51.508;4.288;2022-09-01T14:23:35;2.88;;;1.10;;
47403;SDS011;33157;51.508;4.288;2022-09-01T14:28:36;5.50;;;1.00;;
47403;SDS011;33157;51.508;4.288;2022-09-01T14:38:38;5.05;;;0.98;;
47403;SDS011;33157;51.508;4.288;2022-09-01T14:43:39;5.07;;;1.10;;
47403;SDS011;33157;51.508;4.288;2022-09-01T14:48:41;4.57;;;1.10;;
47403;SDS011;33157;51.508;4.288;2022-09-01T14:53:42;3.83;;;1.20;;
47403;SDS011;33157;51.508;4.288;2022-09-01T14:58:43;18.43;;;1.13;;
47403;SDS011;33157;51.508;4.288;2022-09-01T15:03:46;2.90;;;0.80;;
47403;SDS011;33157;51.508;4.288;2022-09-01T15:08:47;4.03;;;0.90;;
47403;SDS011;33157;51.508;4.288;2022-09-01T15:13:48;12.93;;;6.37;;
47403;SDS011;33157;51.508;4.288;2022-09-01T15:18:51;5.65;;;3.35;;
47403;SDS011;33157;51.508;4.288;2022-09-01T15:23:54;5.57;;;1.67;;
47403;SDS011;33157;51.508;4.288;2022-09-01T15:28:54;3.97;;;0.80;;
47403;SDS011;33157;51.508;4.288;2022-09-01T15:33:58;2.13;;;0.90;;
47403;SDS011;33157;51.508;4.288;2022-09-01T15:39:00;4.18;;;0.80;;
47403;SDS011;33157;51.508;4.288;2022-09-01T15:44:01;2.10;;;0.73;;
47403;SDS011;33157;51.508;4.288;2022-09-01T15:49:05;1.40;;;0.50;;
47403;SDS011;33157;51.508;4.288;2022-09-01T15:54:09;4.43;;;0.90;;
47403;SDS011;33157;51.508;4.288;2022-09-01T15:59:10;1.88;;;0.70;;
47403;SDS011;33157;51.508;4.288;2022-09-01T16:04:12;2.03;;;1.13;;
47403;SDS011;33157;51.508;4.288;2022-09-01T16:09:14;3.42;;;0.90;;
47403;SDS011;33157;51.508;4.288;2022-09-01T16:14:14;2.07;;;0.87;;
47403;SDS011;33157;51.508;4.288;2022-09-01T16:24:43;4.82;;;1.35;;
47403;SDS011;33157;51.508;4.288;2022-09-01T16:29:49;4.95;;;2.72;;
47403;SDS011;33157;51.508;4.288;2022-09-01T16:34:52;6.85;;;0.60;;
47403;SDS011;33157;51.508;4.288;2022-09-01T16:40:07;5.63;;;0.80;;
47403;SDS011;33157;51.508;4.288;2022-09-01T16:50:46;5.50;;;0.70;;
47403;SDS011;33157;51.508;4.288;2022-09-01T17:07:13;3.60;;;0.80;;
47403;SDS011;33157;51.508;4.288;2022-09-01T17:18:02;3.35;;;0.73;;
47403;SDS011;33157;51.508;4.288;2022-09-01T17:22:57;4.88;;;1.00;;
47403;SDS011;33157;51.508;4.288;2022-09-01T17:28:00;3.67;;;0.70;;
47403;SDS011;33157;51.508;4.288;2022-09-01T17:38:58;3.22;;;0.88;;
47403;SDS011;33157;51.508;4.288;2022-09-01T17:50:06;5.13;;;1.02;;
47403;SDS011;33157;51.508;4.288;2022-09-01T17:55:16;2.85;;;0.73;;
47403;SDS011;33157;51.508;4.288;2022-09-01T18:00:29;2.90;;;0.90;;
47403;SDS011;33157;51.508;4.288;2022-09-01T18:05:55;4.05;;;0.77;;
47403;SDS011;33157;51.508;4.288;2022-09-01T18:11:09;4.30;;;0.98;;
47403;SDS011;33157;51.508;4.288;2022-09-01T18:22:15;5.47;;;1.02;;
47403;SDS011;33157;51.508;4.288;2022-09-01T18:27:18;8.43;;;0.90;;
47403;SDS011;33157;51.508;4.288;2022-09-01T18:32:24;6.18;;;0.95;;
47403;SDS011;33157;51.508;4.288;2022-09-01T19:09:41;4.32;;;1.17;;
47403;SDS011;33157;51.508;4.288;2022-09-01T19:25:14;2.75;;;0.70;;
47403;SDS011;33157;51.508;4.288;2022-09-01T19:30:38;6.10;;;1.50;;
47403;SDS011;33157;51.508;4.288;2022-09-01T19:35:41;5.45;;;1.02;;
47403;SDS011;33157;51.508;4.288;2022-09-01T19:40:46;3.50;;;1.02;;
47403;SDS011;33157;51.508;4.288;2022-09-01T19:51:12;4.72;;;1.38;;
47403;SDS011;33157;51.508;4.288;2022-09-01T20:02:21;2.20;;;1.00;;
47403;SDS011;33157;51.508;4.288;2022-09-01T20:07:35;4.28;;;1.10;;
47403;SDS011;33157;51.508;4.288;2022-09-01T20:12:49;3.63;;;1.00;;
47403;SDS011;33157;51.508;4.288;2022-09-01T20:18:13;3.17;;;1.15;;
47403;SDS011;33157;51.508;4.288;2022-09-01T20:23:31;3.15;;;1.52;;
47403;SDS011;33157;51.508;4.288;2022-09-01T20:28:58;8.23;;;2.03;;
47403;SDS011;33157;51.508;4.288;2022-09-01T20:39:39;16.63;;;5.05;;
47403;SDS011;33157;51.508;4.288;2022-09-01T20:50:12;4.00;;;2.13;;
47403;SDS011;33157;51.508;4.288;2022-09-01T21:00:30;8.15;;;1.40;;
47403;SDS011;33157;51.508;4.288;2022-09-01T21:10:41;6.65;;;1.50;;
47403;SDS011;33157;51.508;4.288;2022-09-01T21:16:03;3.45;;;1.50;;
47403;SDS011;33157;51.508;4.288;2022-09-01T21:21:51;4.18;;;1.20;;
47403;SDS011;33157;51.508;4.288;2022-09-01T21:26:43;4.93;;;1.25;;
47403;SDS011;33157;51.508;4.288;2022-09-01T21:31:44;5.03;;;1.25;;
47403;SDS011;33157;51.508;4.288;2022-09-01T21:36:46;5.27;;;1.20;;
47403;SDS011;33157;51.508;4.288;2022-09-01T21:41:46;14.00;;;1.50;;
47403;SDS011;33157;51.508;4.288;2022-09-01T21:46:47;9.77;;;1.20;;
47403;SDS011;33157;51.508;4.288;2022-09-01T21:51:47;2.13;;;1.17;;
47403;SDS011;33157;51.508;4.288;2022-09-01T21:56:48;3.00;;;0.90;;
47403;SDS011;33157;51.508;4.288;2022-09-01T22:01:52;4.20;;;1.27;;
47403;SDS011;33157;51.508;4.288;2022-09-01T22:06:53;5.55;;;1.50;;
47403;SDS011;33157;51.508;4.288;2022-09-01T22:11:53;4.88;;;1.40;;
47403;SDS011;33157;51.508;4.288;2022-09-01T22:16:54;4.45;;;1.35;;
47403;SDS011;33157;51.508;4.288;2022-09-01T22:21:55;11.25;;;1.83;;
47403;SDS011;33157;51.508;4.288;2022-09-01T22:26:55;3.38;;;1.30;;
47403;SDS011;33157;51.508;4.288;2022-09-01T22:31:56;3.88;;;1.27;;
47403;SDS011;33157;51.508;4.288;2022-09-01T22:36:56;6.93;;;2.28;;
47403;SDS011;33157;51.508;4.288;2022-09-01T22:41:57;4.50;;;2.08;;
47403;SDS011;33157;51.508;4.288;2022-09-01T22:46:57;5.40;;;1.48;;
47403;SDS011;33157;51.508;4.288;2022-09-01T22:51:58;4.10;;;1.50;;
47403;SDS011;33157;51.508;4.288;2022-09-01T22:56:58;3.45;;;1.05;;
47403;SDS011;33157;51.508;4.288;2022-09-01T23:01:59;4.05;;;1.75;;
47403;SDS011;33157;51.508;4.288;2022-09-01T23:07:00;4.78;;;1.40;;
47403;SDS011;33157;51.508;4.288;2022-09-01T23:12:01;5.10;;;1.30;;
47403;SDS011;33157;51.508;4.288;2022-09-01T23:17:02;4.22;;;1.10;;
47403;SDS011;33157;51.508;4.288;2022-09-01T23:22:02;2.92;;;1.15;;
47403;SDS011;33157;51.508;4.288;2022-09-01T23:27:03;7.32;;;1.10;;
47403;SDS011;33157;51.508;4.288;2022-09-01T23:32:04;3.17;;;1.30;;
47403;SDS011;33157;51.508;4.288;2022-09-01T23:37:05;6.30;;;1.30;;
47403;SDS011;33157;51.508;4.288;2022-09-01T23:42:06;6.68;;;1.20;;
47403;SDS011;33157;51.508;4.288;2022-09-01T23:47:07;2.58;;;0.93;;
47403;SDS011;33157;51.508;4.288;2022-09-01T23:52:07;4.60;;;0.98;;
47403;SDS011;33157;51.508;4.288;2022-09-01T23:57:08;4.47;;;1.33;;
